createdAt,value
2023-03-31T00:01:54.305Z,12.60
2023-03-31T00:04:24.419Z,12.60
2023-03-31T00:06:54.529Z,12.60
2023-03-31T00:09:22.996Z,12.60
2023-03-31T00:11:51.289Z,12.60
2023-03-31T00:14:20.353Z,12.50
2023-03-31T00:16:48.509Z,12.60
2023-03-31T00:19:19.855Z,12.50
2023-03-31T00:21:51.543Z,12.50
2023-03-31T00:24:19.740Z,12.50
2023-03-31T00:26:47.566Z,12.50
2023-03-31T00:29:15.338Z,12.50
2023-03-31T00:31:43.170Z,12.50
2023-03-31T00:34:10.989Z,12.50
2023-03-31T00:36:47.289Z,12.50
2023-03-31T00:39:18.789Z,12.40
2023-03-31T00:41:46.810Z,12.40
2023-03-31T00:44:22.698Z,12.40
2023-03-31T00:46:54.785Z,12.40
2023-03-31T00:49:28.186Z,12.40
2023-03-31T00:52:02.256Z,12.40
2023-03-31T00:54:33.842Z,12.40
2023-03-31T00:57:03.586Z,12.40
2023-03-31T00:59:35.684Z,12.40
2023-03-31T01:02:04.622Z,12.40
2023-03-31T01:04:36.676Z,12.40
2023-03-31T01:07:09.649Z,12.40
2023-03-31T01:09:39.591Z,12.40
2023-03-31T01:12:10.239Z,12.40
2023-03-31T01:14:38.046Z,12.40
2023-03-31T01:17:09.643Z,12.40
2023-03-31T01:19:54.405Z,12.40
2023-03-31T01:23:01.201Z,12.40
2023-03-31T01:26:01.611Z,12.40
2023-03-31T01:28:36.610Z,12.40
2023-03-31T01:31:26.464Z,12.40
2023-03-31T01:34:20.966Z,12.40
2023-03-31T01:37:30.794Z,12.30
2023-03-31T01:40:25.624Z,12.30
2023-03-31T01:42:57.505Z,12.30
2023-03-31T01:45:37.790Z,12.30
2023-03-31T01:48:12.931Z,12.30
2023-03-31T01:50:46.614Z,12.30
2023-03-31T01:53:21.821Z,12.30
2023-03-31T01:55:59.691Z,12.30
2023-03-31T01:58:32.849Z,12.30
2023-03-31T02:01:07.278Z,12.30
2023-03-31T02:03:41.155Z,12.30
2023-03-31T02:06:14.112Z,12.30
2023-03-31T02:08:46.398Z,12.30
2023-03-31T02:11:16.325Z,12.30
2023-03-31T02:13:47.749Z,12.20
2023-03-31T02:16:24.404Z,12.20
2023-03-31T02:19:02.702Z,12.20
2023-03-31T02:21:32.596Z,12.20
2023-03-31T02:24:03.152Z,12.20
2023-03-31T02:26:37.048Z,12.20
2023-03-31T02:29:05.095Z,12.20
2023-03-31T02:31:42.838Z,12.20
2023-03-31T02:34:10.812Z,12.20
2023-03-31T02:36:39.396Z,12.20
2023-03-31T02:39:12.311Z,12.20
2023-03-31T02:41:41.564Z,12.20
2023-03-31T02:44:09.835Z,12.20
2023-03-31T02:46:37.909Z,12.20
2023-03-31T02:49:09.947Z,12.20
2023-03-31T02:52:02.224Z,12.20
2023-03-31T02:54:53.923Z,12.20
2023-03-31T02:57:41.737Z,12.20
2023-03-31T03:00:18.526Z,12.20
2023-03-31T03:03:07.931Z,12.10
2023-03-31T03:05:45.834Z,12.10
2023-03-31T03:08:27.085Z,12.10
2023-03-31T03:11:04.007Z,12.10
2023-03-31T03:13:39.006Z,12.10
2023-03-31T03:16:13.830Z,12.10
2023-03-31T03:18:41.713Z,12.10
2023-03-31T03:21:09.593Z,12.10
2023-03-31T03:23:37.420Z,12.10
2023-03-31T03:26:06.111Z,12.10
2023-03-31T03:28:35.472Z,12.00
2023-03-31T03:31:03.326Z,12.10
2023-03-31T03:33:31.150Z,12.00
2023-03-31T03:35:58.932Z,12.00
2023-03-31T03:38:26.710Z,12.00
2023-03-31T03:40:54.971Z,12.00
2023-03-31T03:43:22.816Z,12.00
2023-03-31T03:45:52.465Z,12.00
2023-03-31T03:48:20.349Z,12.00
2023-03-31T03:50:48.891Z,12.00
2023-03-31T03:53:16.760Z,12.00
2023-03-31T03:55:45.047Z,11.90
2023-03-31T03:58:12.943Z,11.90
2023-03-31T04:00:40.795Z,11.90
2023-03-31T04:03:09.998Z,11.90
2023-03-31T04:05:37.852Z,11.90
2023-03-31T04:08:06.170Z,11.90
2023-03-31T04:10:33.936Z,11.90
2023-03-31T04:13:02.312Z,11.90
2023-03-31T04:15:30.202Z,11.90
2023-03-31T04:17:58.320Z,11.90
2023-03-31T04:20:31.513Z,11.80
2023-03-31T04:22:59.679Z,11.80
2023-03-31T04:25:30.753Z,11.80
2023-03-31T04:27:58.666Z,11.80
2023-03-31T04:30:31.466Z,11.80
2023-03-31T04:33:00.904Z,11.80
2023-03-31T04:35:42.687Z,11.80
2023-03-31T04:38:10.605Z,11.80
2023-03-31T04:40:39.885Z,11.80
2023-03-31T04:43:07.758Z,11.70
2023-03-31T04:45:35.624Z,11.80
2023-03-31T04:48:03.439Z,11.70
2023-03-31T04:50:32.643Z,11.70
2023-03-31T04:53:00.755Z,11.70
2023-03-31T04:55:28.602Z,11.70
2023-03-31T04:57:56.787Z,11.70
2023-03-31T05:00:26.457Z,11.70
2023-03-31T05:02:54.379Z,11.70
2023-03-31T05:05:22.546Z,11.70
2023-03-31T05:07:51.697Z,11.70
2023-03-31T05:10:19.654Z,11.60
2023-03-31T05:12:47.471Z,11.60
2023-03-31T05:15:15.381Z,11.70
2023-03-31T05:17:43.277Z,11.60
2023-03-31T05:20:13.354Z,11.60
2023-03-31T05:22:43.832Z,11.60
2023-03-31T05:25:18.489Z,11.60
2023-03-31T05:27:47.381Z,11.60
2023-03-31T05:30:16.009Z,11.60
2023-03-31T05:32:44.251Z,11.50
2023-03-31T05:35:12.261Z,11.60
2023-03-31T05:37:40.052Z,11.60
2023-03-31T05:40:10.834Z,11.50
2023-03-31T05:42:40.106Z,11.50
2023-03-31T05:45:09.514Z,11.50
2023-03-31T05:47:37.688Z,11.50
2023-03-31T05:50:08.859Z,11.50
2023-03-31T05:52:36.844Z,11.50
2023-03-31T05:55:05.629Z,11.50
2023-03-31T05:57:33.464Z,11.40
2023-03-31T06:00:03.736Z,11.50
2023-03-31T06:02:31.943Z,11.40
2023-03-31T06:04:59.860Z,11.40
2023-03-31T06:07:27.717Z,11.40
2023-03-31T06:09:55.613Z,11.40
2023-03-31T06:12:23.452Z,11.40
2023-03-31T06:14:51.255Z,11.40
2023-03-31T06:17:20.417Z,11.40
2023-03-31T06:19:48.243Z,11.40
2023-03-31T06:22:16.065Z,11.40
2023-03-31T06:24:43.852Z,11.40
2023-03-31T06:27:11.624Z,11.40
2023-03-31T06:29:39.487Z,11.30
2023-03-31T06:32:07.375Z,11.40
2023-03-31T06:34:36.597Z,11.30
2023-03-31T06:37:07.282Z,11.40
2023-03-31T06:39:35.155Z,11.40
2023-03-31T06:42:03.005Z,11.30
2023-03-31T06:44:30.837Z,11.30
2023-03-31T06:46:58.627Z,11.30
2023-03-31T06:49:26.552Z,11.30
2023-03-31T06:51:55.721Z,11.30
2023-03-31T06:54:23.629Z,11.30
2023-03-31T06:56:51.459Z,11.30
2023-03-31T06:59:19.358Z,11.30
2023-03-31T07:01:48.820Z,11.30
2023-03-31T07:04:17.190Z,11.30
2023-03-31T07:06:45.079Z,11.30
2023-03-31T07:09:14.232Z,11.30
2023-03-31T07:11:42.002Z,11.30
2023-03-31T07:14:09.959Z,11.30
2023-03-31T07:16:37.798Z,11.30
2023-03-31T07:19:05.921Z,11.30
2023-03-31T07:21:33.737Z,11.30
2023-03-31T07:24:01.772Z,11.30
2023-03-31T07:26:31.058Z,11.30
2023-03-31T07:28:59.511Z,11.40
2023-03-31T07:31:27.559Z,11.40
2023-03-31T07:33:55.420Z,11.40
2023-03-31T07:36:23.405Z,11.40
2023-03-31T07:38:51.759Z,11.40
2023-03-31T07:41:21.683Z,11.40
2023-03-31T07:43:51.919Z,11.40
2023-03-31T07:46:22.252Z,11.40
2023-03-31T07:48:51.192Z,11.40
2023-03-31T07:51:20.858Z,11.40
2023-03-31T07:53:52.199Z,11.40
2023-03-31T07:56:21.101Z,11.50
2023-03-31T07:58:51.093Z,11.40
2023-03-31T08:01:21.435Z,11.50
2023-03-31T08:03:50.235Z,11.50
2023-03-31T08:06:20.625Z,11.50
2023-03-31T08:08:48.588Z,11.60
2023-03-31T08:11:16.614Z,11.60
2023-03-31T08:13:44.451Z,11.60
2023-03-31T08:16:13.765Z,11.70
2023-03-31T08:18:41.671Z,11.70
2023-03-31T08:21:10.733Z,11.70
2023-03-31T08:23:38.649Z,11.70
2023-03-31T08:26:11.967Z,11.80
2023-03-31T08:28:40.028Z,11.80
2023-03-31T08:31:10.226Z,11.80
2023-03-31T08:33:40.403Z,11.90
2023-03-31T08:36:10.919Z,11.90
2023-03-31T08:38:41.623Z,11.90
2023-03-31T08:41:25.868Z,11.90
2023-03-31T08:43:57.012Z,12.00
2023-03-31T08:46:25.854Z,12.00
2023-03-31T08:48:58.102Z,12.10
2023-03-31T08:51:29.650Z,12.10
2023-03-31T08:54:02.968Z,12.10
2023-03-31T08:56:34.571Z,12.20
2023-03-31T08:59:03.289Z,12.20
2023-03-31T09:01:54.605Z,12.20
2023-03-31T09:04:52.661Z,12.30
2023-03-31T09:07:30.429Z,12.40
2023-03-31T09:10:11.594Z,12.40
2023-03-31T09:12:47.307Z,12.50
2023-03-31T09:15:23.719Z,12.60
2023-03-31T09:17:54.623Z,12.70
2023-03-31T09:20:30.945Z,12.70
2023-03-31T09:23:06.122Z,12.70
2023-03-31T09:25:37.272Z,12.70
2023-03-31T09:28:10.195Z,12.70
2023-03-31T09:30:39.371Z,12.80
2023-03-31T09:33:13.211Z,12.90
2023-03-31T09:35:44.415Z,13.00
2023-03-31T09:38:14.764Z,13.00
2023-03-31T09:40:43.631Z,13.00
2023-03-31T09:43:20.017Z,13.00
2023-03-31T09:46:05.314Z,13.10
2023-03-31T09:48:37.090Z,13.20
2023-03-31T09:51:08.725Z,13.20
2023-03-31T09:53:41.664Z,13.20
2023-03-31T09:56:11.359Z,13.20
2023-03-31T09:58:42.607Z,13.30
2023-03-31T10:01:11.817Z,13.30
2023-03-31T10:03:50.853Z,13.30
2023-03-31T10:06:21.036Z,13.30
2023-03-31T10:08:52.561Z,13.30
2023-03-31T10:11:20.452Z,13.30
2023-03-31T10:13:50.385Z,13.40
2023-03-31T10:16:24.356Z,13.50
2023-03-31T10:18:52.366Z,13.50
2023-03-31T10:21:25.856Z,13.50
2023-03-31T10:23:55.163Z,13.60
2023-03-31T10:26:26.705Z,13.60
2023-03-31T10:28:55.493Z,13.60
2023-03-31T10:31:28.113Z,13.70
2023-03-31T10:33:58.366Z,13.70
2023-03-31T10:36:30.081Z,13.70
2023-03-31T10:38:58.795Z,13.70
2023-03-31T10:41:29.991Z,13.70
2023-03-31T10:43:58.291Z,13.70
2023-03-31T10:46:42.771Z,13.80
2023-03-31T10:49:22.982Z,13.80
2023-03-31T10:51:54.258Z,13.80
2023-03-31T10:54:22.067Z,13.70
2023-03-31T10:56:54.257Z,13.40
2023-03-31T10:59:33.911Z,13.20
2023-03-31T11:02:23.826Z,13.00
2023-03-31T11:05:04.151Z,12.90
2023-03-31T11:07:48.090Z,12.90
2023-03-31T11:10:50.353Z,12.90
2023-03-31T11:13:22.726Z,12.80
2023-03-31T11:15:59.748Z,12.80
2023-03-31T11:18:45.327Z,12.80
2023-03-31T11:21:22.065Z,12.70
2023-03-31T11:24:00.987Z,12.70
2023-03-31T11:26:36.414Z,12.70
2023-03-31T11:29:16.741Z,12.70
2023-03-31T11:31:53.044Z,12.70
2023-03-31T11:34:43.016Z,12.80
2023-03-31T11:37:35.730Z,12.90
2023-03-31T11:40:23.011Z,13.00
2023-03-31T11:42:53.736Z,13.00
2023-03-31T11:45:26.506Z,13.00
2023-03-31T11:48:00.386Z,13.00
2023-03-31T11:50:31.524Z,13.00
2023-03-31T11:53:01.851Z,12.90
2023-03-31T11:55:32.671Z,13.00
2023-03-31T11:58:05.575Z,13.00
2023-03-31T12:00:37.999Z,13.00
2023-03-31T12:03:11.692Z,13.00
2023-03-31T12:05:43.542Z,13.00
2023-03-31T12:08:17.890Z,13.00
2023-03-31T12:10:52.381Z,13.10
2023-03-31T12:13:35.230Z,13.20
2023-03-31T12:16:07.421Z,13.20
2023-03-31T12:18:39.586Z,13.20
2023-03-31T12:21:08.759Z,13.20
2023-03-31T12:23:41.408Z,13.30
2023-03-31T12:26:32.028Z,13.30
2023-03-31T12:29:04.993Z,13.40
2023-03-31T12:31:33.998Z,13.50
2023-03-31T12:34:11.379Z,13.60
2023-03-31T12:36:54.866Z,13.60
2023-03-31T12:39:35.016Z,13.50
2023-03-31T12:42:26.342Z,13.50
2023-03-31T12:44:56.592Z,13.40
2023-03-31T12:47:43.091Z,13.50
2023-03-31T12:50:31.022Z,13.40
2023-03-31T12:53:06.167Z,13.40
2023-03-31T12:55:39.971Z,13.40
2023-03-31T12:58:41.544Z,13.40
2023-03-31T13:01:14.523Z,13.40
2023-03-31T13:03:46.567Z,13.50
2023-03-31T13:06:44.221Z,13.40
2023-03-31T13:09:47.783Z,13.40
2023-03-31T13:12:20.760Z,13.40
2023-03-31T13:14:53.825Z,13.40
2023-03-31T13:17:28.872Z,13.40
2023-03-31T13:19:58.254Z,13.40
2023-03-31T13:22:35.000Z,13.40
2023-03-31T13:25:36.498Z,13.40
2023-03-31T13:28:13.742Z,13.40
2023-03-31T13:30:58.186Z,13.30
2023-03-31T13:33:31.801Z,13.30
2023-03-31T13:36:24.082Z,13.30
2023-03-31T13:39:06.338Z,13.30
2023-03-31T13:41:46.984Z,13.30
2023-03-31T13:44:44.310Z,13.30
2023-03-31T13:47:54.328Z,13.30
2023-03-31T13:50:36.525Z,13.30
2023-03-31T13:53:17.231Z,13.30
2023-03-31T13:56:02.043Z,13.40
2023-03-31T13:58:53.140Z,13.30
2023-03-31T14:01:37.803Z,13.40
2023-03-31T14:04:34.864Z,13.40
2023-03-31T14:07:09.071Z,13.50
2023-03-31T14:09:37.970Z,13.50
2023-03-31T14:12:23.439Z,13.60
2023-03-31T14:14:54.835Z,13.60
2023-03-31T14:17:24.575Z,13.60
2023-03-31T14:20:31.131Z,13.60
2023-03-31T14:23:11.086Z,13.60
2023-03-31T14:25:50.475Z,13.50
2023-03-31T14:28:33.726Z,13.50
2023-03-31T14:31:13.398Z,13.50
2023-03-31T14:33:49.065Z,13.50
2023-03-31T14:36:25.956Z,13.40
2023-03-31T14:38:56.345Z,13.40
2023-03-31T14:41:29.787Z,13.40
2023-03-31T14:44:01.629Z,13.30
2023-03-31T14:46:32.872Z,13.30
2023-03-31T14:49:08.441Z,13.20
2023-03-31T14:51:36.305Z,13.10
2023-03-31T14:54:05.806Z,13.10
2023-03-31T14:56:39.448Z,13.10
2023-03-31T14:59:09.195Z,13.10
2023-03-31T15:01:39.210Z,13.10
2023-03-31T15:04:09.622Z,13.20
2023-03-31T15:06:39.800Z,13.20
2023-03-31T15:09:11.834Z,13.20
2023-03-31T15:11:39.936Z,13.20
2023-03-31T15:14:09.933Z,13.20
2023-03-31T15:16:43.049Z,13.20
2023-03-31T15:19:17.235Z,13.10
2023-03-31T15:21:46.504Z,13.10
2023-03-31T15:24:16.179Z,13.10
2023-03-31T15:26:50.979Z,13.10
2023-03-31T15:29:22.095Z,13.10
2023-03-31T15:31:50.145Z,13.10
2023-03-31T15:34:24.587Z,13.10
2023-03-31T15:36:55.698Z,13.10
2023-03-31T15:39:26.738Z,13.10
2023-03-31T15:41:54.968Z,13.00
2023-03-31T15:44:36.061Z,13.00
2023-03-31T15:47:09.084Z,13.00
2023-03-31T15:49:37.016Z,13.00
2023-03-31T15:52:04.951Z,13.00
2023-03-31T15:54:38.041Z,13.00
2023-03-31T15:57:07.481Z,13.00
2023-03-31T16:02:23.889Z,13.00
2023-03-31T16:04:56.262Z,13.00
2023-03-31T16:07:27.115Z,12.90
2023-03-31T16:10:08.710Z,12.90
2023-03-31T16:12:42.935Z,12.90
2023-03-31T16:15:15.246Z,12.90
2023-03-31T16:17:49.966Z,12.90
2023-03-31T16:20:21.906Z,12.90
2023-03-31T16:22:53.178Z,12.90
2023-03-31T16:25:23.273Z,12.90
2023-03-31T16:27:55.135Z,12.90
2023-03-31T16:30:35.613Z,12.90
2023-03-31T16:33:05.552Z,12.80
2023-03-31T16:35:34.855Z,12.80
2023-03-31T16:38:02.840Z,12.80
2023-03-31T16:40:37.145Z,12.80
2023-03-31T16:43:13.193Z,12.80
2023-03-31T16:45:41.878Z,12.80
2023-03-31T16:50:59.954Z,12.70
2023-03-31T16:53:30.968Z,12.70
2023-03-31T16:56:02.910Z,12.70
2023-03-31T16:58:31.386Z,12.60
2023-03-31T17:00:59.836Z,12.60
2023-03-31T17:03:28.361Z,12.60
2023-03-31T17:05:59.238Z,12.60
2023-03-31T17:08:28.443Z,12.60
2023-03-31T17:11:00.887Z,12.60
2023-03-31T17:13:30.262Z,12.60
2023-03-31T17:16:04.725Z,12.50
2023-03-31T17:18:43.838Z,12.40
2023-03-31T17:21:13.820Z,12.50
2023-03-31T17:23:42.758Z,12.40
2023-03-31T17:26:12.898Z,12.40
2023-03-31T17:28:42.873Z,12.30
2023-03-31T17:31:15.001Z,12.30
2023-03-31T17:33:43.594Z,12.30
2023-03-31T17:36:12.287Z,12.30
2023-03-31T17:38:41.838Z,12.30
2023-03-31T17:41:12.546Z,12.30
2023-03-31T17:43:44.861Z,12.20
2023-03-31T17:46:13.201Z,12.20
2023-03-31T17:48:43.214Z,12.20
2023-03-31T17:51:14.729Z,12.20
2023-03-31T17:53:42.773Z,12.20
2023-03-31T17:56:10.721Z,12.20
2023-03-31T17:58:38.553Z,12.20
2023-03-31T18:01:09.050Z,12.20
2023-03-31T18:03:37.260Z,12.10
2023-03-31T18:06:07.527Z,12.10
2023-03-31T18:08:36.373Z,12.10
2023-03-31T18:11:05.783Z,12.10
2023-03-31T18:13:36.100Z,12.00
2023-03-31T18:16:05.049Z,12.10
2023-03-31T18:18:34.374Z,12.00
2023-03-31T18:21:06.008Z,12.00
2023-03-31T18:23:34.668Z,12.00
2023-03-31T18:26:03.266Z,12.00
2023-03-31T18:28:31.202Z,12.00
2023-03-31T18:30:59.320Z,12.00
2023-03-31T18:33:27.953Z,12.00
2023-03-31T18:35:58.395Z,11.90
2023-03-31T18:38:27.273Z,11.90
2023-03-31T18:40:56.253Z,11.90
2023-03-31T18:43:25.954Z,11.90
2023-03-31T18:45:55.485Z,11.90
2023-03-31T18:48:25.171Z,11.90
2023-03-31T18:50:53.878Z,11.80
2023-03-31T18:53:24.438Z,11.80
2023-03-31T18:55:53.912Z,11.80
2023-03-31T18:58:22.322Z,11.80
2023-03-31T19:00:50.439Z,11.80
2023-03-31T19:03:18.490Z,11.80
2023-03-31T19:05:46.394Z,11.70
2023-03-31T19:08:14.353Z,11.80
2023-03-31T19:10:43.603Z,11.70
2023-03-31T19:13:15.179Z,11.70
2023-03-31T19:15:43.046Z,11.70
2023-03-31T19:18:14.481Z,11.60
2023-03-31T19:20:43.040Z,11.70
2023-03-31T19:23:11.778Z,11.60
2023-03-31T19:25:39.653Z,11.60
2023-03-31T19:28:09.139Z,11.60
2023-03-31T19:30:36.945Z,11.50
2023-03-31T19:33:04.931Z,11.50
2023-03-31T19:35:32.843Z,11.40
2023-03-31T19:38:00.884Z,11.40
2023-03-31T19:40:28.963Z,11.40
2023-03-31T19:42:56.786Z,11.40
2023-03-31T19:45:26.049Z,11.40
2023-03-31T19:47:53.892Z,11.40
2023-03-31T19:50:21.788Z,11.30
2023-03-31T19:52:50.034Z,11.30
2023-03-31T19:55:18.010Z,11.30
2023-03-31T19:57:45.949Z,11.30
2023-03-31T20:00:18.113Z,11.30
2023-03-31T20:02:48.279Z,11.30
2023-03-31T20:05:16.432Z,11.30
2023-03-31T20:07:44.246Z,11.20
2023-03-31T20:10:13.921Z,11.20
2023-03-31T20:12:42.109Z,11.30
2023-03-31T20:15:10.124Z,11.20
2023-03-31T20:17:38.617Z,11.20
2023-03-31T20:20:09.292Z,11.30
2023-03-31T20:22:37.173Z,11.20
2023-03-31T20:25:06.496Z,11.20
2023-03-31T20:27:34.348Z,11.20
2023-03-31T20:30:02.283Z,11.20
2023-03-31T20:32:30.067Z,11.20
2023-03-31T20:34:57.909Z,11.20
2023-03-31T20:37:27.090Z,11.20
2023-03-31T20:39:55.064Z,11.20
2023-03-31T20:42:22.877Z,11.20
2023-03-31T20:44:51.227Z,11.20
2023-03-31T20:47:19.203Z,11.10
2023-03-31T20:49:47.653Z,11.10
2023-03-31T20:52:15.500Z,11.10
2023-03-31T20:54:44.707Z,11.10
2023-03-31T20:57:12.592Z,11.10
2023-03-31T20:59:40.446Z,11.10
2023-03-31T21:02:09.127Z,11.00
2023-03-31T21:04:36.933Z,11.00
2023-03-31T21:07:04.827Z,11.00
2023-03-31T21:09:32.963Z,11.00
2023-03-31T21:12:02.714Z,11.00
2023-03-31T21:14:30.539Z,11.00
2023-03-31T21:16:58.489Z,10.90
2023-03-31T21:19:26.375Z,11.00
2023-03-31T21:21:54.267Z,11.00
2023-03-31T21:24:22.426Z,10.90
2023-03-31T21:26:50.485Z,10.90
2023-03-31T21:29:19.680Z,10.90
2023-03-31T21:31:48.106Z,10.90
2023-03-31T21:34:15.947Z,10.90
2023-03-31T21:36:43.758Z,10.90
2023-03-31T21:39:11.579Z,10.80
2023-03-31T21:41:40.467Z,10.80
2023-03-31T21:44:08.960Z,10.80
2023-03-31T21:46:38.896Z,10.80
2023-03-31T21:49:07.073Z,10.80
2023-03-31T21:51:34.873Z,10.80
2023-03-31T21:54:02.827Z,10.80
2023-03-31T21:56:31.939Z,10.80
2023-03-31T21:59:00.981Z,10.80
2023-03-31T22:01:28.952Z,10.80
2023-03-31T22:03:59.030Z,10.80
2023-03-31T22:06:27.207Z,10.80
2023-03-31T22:08:55.406Z,10.70
2023-03-31T22:11:24.303Z,10.70
2023-03-31T22:13:52.161Z,10.70
2023-03-31T22:16:22.425Z,10.70
2023-03-31T22:18:50.856Z,10.70
2023-03-31T22:21:22.705Z,10.70
2023-03-31T22:23:52.218Z,10.70
2023-03-31T22:26:20.410Z,10.70
2023-03-31T22:28:48.404Z,10.60
2023-03-31T22:31:16.493Z,10.70
2023-03-31T22:33:44.886Z,10.60
2023-03-31T22:36:12.908Z,10.60
2023-03-31T22:38:42.061Z,10.60
2023-03-31T22:41:09.876Z,10.60
2023-03-31T22:43:37.740Z,10.60
2023-03-31T22:46:06.928Z,10.60
2023-03-31T22:48:34.883Z,10.60
2023-03-31T22:51:05.686Z,10.60
2023-03-31T22:53:34.012Z,10.60
2023-03-31T22:56:06.995Z,10.60
2023-03-31T22:58:35.348Z,10.60
2023-03-31T23:01:03.400Z,10.50
2023-03-31T23:03:31.556Z,10.50
2023-03-31T23:06:03.425Z,10.50
2023-03-31T23:08:31.566Z,10.60
2023-03-31T23:11:01.169Z,10.50
2023-03-31T23:13:30.995Z,10.50
2023-03-31T23:16:05.208Z,10.50
2023-03-31T23:18:33.391Z,10.50
2023-03-31T23:21:04.148Z,10.50
2023-03-31T23:23:32.075Z,10.50
2023-03-31T23:26:02.226Z,10.50
2023-03-31T23:28:31.606Z,10.50
2023-03-31T23:30:59.762Z,10.50
2023-03-31T23:33:29.351Z,10.50
2023-03-31T23:36:00.970Z,10.50
2023-03-31T23:38:29.003Z,10.50
2023-03-31T23:40:57.005Z,10.50
2023-03-31T23:43:25.966Z,10.50
2023-03-31T23:45:56.382Z,10.50
2023-03-31T23:48:24.305Z,10.50
2023-03-31T23:50:52.332Z,10.50
2023-03-31T23:53:20.162Z,10.50
2023-03-31T23:55:54.423Z,10.40
2023-03-31T23:58:22.231Z,10.40
